createdAt,value
2022-09-18T00:00:44.396Z,21.60
2022-09-18T00:01:46.234Z,21.60
2022-09-18T00:02:48.097Z,21.59
2022-09-18T00:03:49.949Z,21.58
2022-09-18T00:04:51.792Z,21.57
2022-09-18T00:05:53.627Z,21.58
2022-09-18T00:06:55.531Z,21.57
2022-09-18T00:07:57.340Z,21.58
2022-09-18T00:08:59.191Z,21.58
2022-09-18T00:10:01.052Z,21.58
2022-09-18T00:11:02.887Z,21.59
2022-09-18T00:12:04.686Z,21.58
2022-09-18T00:13:06.493Z,21.60
2022-09-18T00:14:08.293Z,21.59
2022-09-18T00:15:10.095Z,21.60
2022-09-18T00:16:13.404Z,21.60
2022-09-18T00:17:15.246Z,21.61
2022-09-18T00:18:17.055Z,21.62
2022-09-18T00:19:18.861Z,21.61
2022-09-18T00:20:21.883Z,21.62
2022-09-18T00:21:23.717Z,21.61
2022-09-18T00:22:25.830Z,21.61
2022-09-18T00:23:27.642Z,21.61
2022-09-18T00:24:29.439Z,21.61
2022-09-18T00:25:31.242Z,21.61
2022-09-18T00:26:33.167Z,21.61
2022-09-18T00:27:34.972Z,21.61
2022-09-18T00:28:36.820Z,21.62
2022-09-18T00:29:38.612Z,21.62
2022-09-18T00:30:40.510Z,21.61
2022-09-18T00:31:42.522Z,21.61
2022-09-18T00:32:44.366Z,21.61
2022-09-18T00:33:46.246Z,21.62
2022-09-18T00:34:48.052Z,21.61
2022-09-18T00:35:49.898Z,21.61
2022-09-18T00:36:51.909Z,21.62
2022-09-18T00:37:53.722Z,21.61
2022-09-18T00:38:55.528Z,21.62
2022-09-18T00:39:57.365Z,21.61
2022-09-18T00:40:59.228Z,21.61
2022-09-18T00:42:01.055Z,21.60
2022-09-18T00:43:02.854Z,21.60
2022-09-18T00:44:04.665Z,21.59
2022-09-18T00:45:06.496Z,21.59
2022-09-18T00:46:09.453Z,21.58
2022-09-18T00:47:11.234Z,21.57
2022-09-18T00:48:13.051Z,21.58
2022-09-18T00:49:14.953Z,21.58
2022-09-18T00:50:17.759Z,21.57
2022-09-18T00:51:19.554Z,21.56
2022-09-18T00:52:21.393Z,21.58
2022-09-18T00:53:23.206Z,21.57
2022-09-18T00:54:25.011Z,21.56
2022-09-18T00:55:26.802Z,21.57
2022-09-18T00:56:28.916Z,21.56
2022-09-18T00:57:30.755Z,21.57
2022-09-18T00:58:32.551Z,21.55
2022-09-18T00:59:34.357Z,21.55
2022-09-18T01:00:36.326Z,21.54
2022-09-18T01:01:38.166Z,21.53
2022-09-18T01:02:40.387Z,21.53
2022-09-18T01:03:42.255Z,21.52
2022-09-18T01:04:44.082Z,21.51
2022-09-18T01:05:45.879Z,21.51
2022-09-18T01:06:47.785Z,21.51
2022-09-18T01:07:49.629Z,21.52
2022-09-18T01:08:51.438Z,21.51
2022-09-18T01:09:53.233Z,21.52
2022-09-18T01:10:55.128Z,21.51
2022-09-18T01:11:56.831Z,21.52
2022-09-18T01:12:58.678Z,21.51
2022-09-18T01:14:00.684Z,21.51
2022-09-18T01:15:02.479Z,21.51
2022-09-18T01:16:04.441Z,21.52
2022-09-18T01:17:06.192Z,21.52
2022-09-18T01:18:08.021Z,21.53
2022-09-18T01:19:09.817Z,21.52
2022-09-18T01:20:13.172Z,21.52
2022-09-18T01:21:15.077Z,21.52
2022-09-18T01:22:16.871Z,21.52
2022-09-18T01:23:18.720Z,21.53
2022-09-18T01:24:20.529Z,21.52
2022-09-18T01:25:22.330Z,21.50
2022-09-18T01:26:25.351Z,21.53
2022-09-18T01:27:27.148Z,21.54
2022-09-18T01:28:28.975Z,21.53
2022-09-18T01:29:30.770Z,21.54
2022-09-18T01:30:32.571Z,21.55
2022-09-18T01:31:34.448Z,21.56
2022-09-18T01:32:36.481Z,21.54
2022-09-18T01:33:38.326Z,21.55
2022-09-18T01:34:40.127Z,21.55
2022-09-18T01:35:42.688Z,21.54
2022-09-18T01:36:44.637Z,21.56
2022-09-18T01:37:46.428Z,21.55
2022-09-18T01:38:48.261Z,21.55
2022-09-18T01:39:50.067Z,21.55
2022-09-18T01:40:51.967Z,21.55
2022-09-18T01:41:53.769Z,21.56
2022-09-18T01:42:55.575Z,21.56
2022-09-18T01:43:57.388Z,21.56
2022-09-18T01:44:59.187Z,21.56
2022-09-18T01:46:00.988Z,21.56
2022-09-18T01:47:02.874Z,21.55
2022-09-18T01:48:04.691Z,21.54
2022-09-18T01:49:06.518Z,21.55
2022-09-18T01:50:08.541Z,21.55
2022-09-18T01:51:10.364Z,21.56
2022-09-18T01:52:12.164Z,21.55
2022-09-18T01:53:13.968Z,21.57
2022-09-18T01:54:15.816Z,21.57
2022-09-18T01:55:17.613Z,21.59
2022-09-18T01:56:20.425Z,21.58
2022-09-18T01:57:22.228Z,21.60
2022-09-18T01:58:24.036Z,21.58
2022-09-18T01:59:25.995Z,21.59
2022-09-18T02:00:27.997Z,21.59
2022-09-18T02:01:29.906Z,21.60
2022-09-18T02:02:31.783Z,21.59
2022-09-18T02:03:33.597Z,21.59
2022-09-18T02:04:35.424Z,21.59
2022-09-18T02:05:37.222Z,21.58
2022-09-18T02:06:39.145Z,21.57
2022-09-18T02:07:40.950Z,21.57
2022-09-18T02:08:42.745Z,21.57
2022-09-18T02:09:44.587Z,21.56
2022-09-18T02:10:46.494Z,21.56
2022-09-18T02:11:48.298Z,21.55
2022-09-18T02:12:50.096Z,21.56
2022-09-18T02:13:51.895Z,21.55
2022-09-18T02:14:53.718Z,21.54
2022-09-18T02:15:55.560Z,21.54
2022-09-18T02:16:57.421Z,21.55
2022-09-18T02:17:59.217Z,21.54
2022-09-18T02:19:01.009Z,21.54
2022-09-18T02:20:02.937Z,21.53
2022-09-18T02:21:04.729Z,21.53
2022-09-18T02:22:06.629Z,21.53
2022-09-18T02:23:08.427Z,21.54
2022-09-18T02:24:10.233Z,21.55
2022-09-18T02:25:12.071Z,21.54
2022-09-18T02:26:14.611Z,21.55
2022-09-18T02:27:16.397Z,21.55
2022-09-18T02:28:18.190Z,21.55
2022-09-18T02:29:19.896Z,21.54
2022-09-18T02:30:22.430Z,21.54
2022-09-18T02:31:24.307Z,21.54
2022-09-18T02:32:26.129Z,21.55
2022-09-18T02:33:27.943Z,21.55
2022-09-18T02:34:29.728Z,21.54
2022-09-18T02:35:31.554Z,21.55
2022-09-18T02:36:33.662Z,21.55
2022-09-18T02:37:35.561Z,21.55
2022-09-18T02:38:37.362Z,21.55
2022-09-18T02:39:39.155Z,21.55
2022-09-18T02:40:41.196Z,21.55
2022-09-18T02:41:42.980Z,21.55
2022-09-18T02:42:44.778Z,21.55
2022-09-18T02:43:46.573Z,21.54
2022-09-18T02:44:48.383Z,21.55
2022-09-18T02:45:50.191Z,21.55
2022-09-18T02:46:52.132Z,21.55
2022-09-18T02:47:53.969Z,21.55
2022-09-18T02:48:55.772Z,21.54
2022-09-18T02:49:57.565Z,21.54
2022-09-18T02:50:59.495Z,21.55
2022-09-18T02:52:01.279Z,21.54
2022-09-18T02:53:03.176Z,21.54
2022-09-18T02:54:04.878Z,21.53
2022-09-18T02:55:06.679Z,21.54
2022-09-18T02:56:08.809Z,21.53
2022-09-18T02:57:10.629Z,21.54
2022-09-18T02:58:12.418Z,21.54
2022-09-18T02:59:14.204Z,21.54
2022-09-18T03:00:16.416Z,21.55
2022-09-18T03:01:18.308Z,21.55
2022-09-18T03:02:20.149Z,21.56
2022-09-18T03:03:22.046Z,21.56
2022-09-18T03:04:23.850Z,21.57
2022-09-18T03:05:25.654Z,21.57
2022-09-18T03:06:27.573Z,21.56
2022-09-18T03:07:29.365Z,21.55
2022-09-18T03:08:31.079Z,21.56
2022-09-18T03:09:32.883Z,21.56
2022-09-18T03:10:34.774Z,21.57
2022-09-18T03:11:36.595Z,21.57
2022-09-18T03:12:38.380Z,21.57
2022-09-18T03:13:40.171Z,21.58
2022-09-18T03:14:41.868Z,21.57
2022-09-18T03:15:43.720Z,21.58
2022-09-18T03:16:45.595Z,21.59
2022-09-18T03:17:47.381Z,21.59
2022-09-18T03:18:49.177Z,21.59
2022-09-18T03:19:50.984Z,21.59
2022-09-18T03:20:52.884Z,21.60
2022-09-18T03:21:54.710Z,21.59
2022-09-18T03:22:56.508Z,21.59
2022-09-18T03:23:58.508Z,21.59
2022-09-18T03:25:00.301Z,21.60
2022-09-18T03:26:02.393Z,21.59
2022-09-18T03:27:04.234Z,21.60
2022-09-18T03:28:06.043Z,21.59
2022-09-18T03:29:07.829Z,21.55
2022-09-18T03:30:10.155Z,21.59
2022-09-18T03:31:12.012Z,21.58
2022-09-18T03:32:13.864Z,21.59
2022-09-18T03:33:15.635Z,21.58
2022-09-18T03:34:17.436Z,21.58
2022-09-18T03:35:19.232Z,21.57
2022-09-18T03:36:22.850Z,21.58
2022-09-18T03:37:24.672Z,21.58
2022-09-18T03:38:26.464Z,21.57
2022-09-18T03:39:28.270Z,21.57
2022-09-18T03:40:31.242Z,21.57
2022-09-18T03:41:32.969Z,21.58
2022-09-18T03:42:34.799Z,21.58
2022-09-18T03:43:36.574Z,21.58
2022-09-18T03:44:38.386Z,21.57
2022-09-18T03:45:40.182Z,21.57
2022-09-18T03:46:42.045Z,21.56
2022-09-18T03:47:43.925Z,21.57
2022-09-18T03:48:45.715Z,21.57
2022-09-18T03:49:47.519Z,21.55
2022-09-18T03:50:49.407Z,21.57
2022-09-18T03:51:51.205Z,21.58
2022-09-18T03:52:53.040Z,21.58
2022-09-18T03:53:54.848Z,21.58
2022-09-18T03:54:56.696Z,21.58
2022-09-18T03:55:58.488Z,21.58
2022-09-18T03:57:00.386Z,21.58
2022-09-18T03:58:02.239Z,21.58
2022-09-18T03:59:04.034Z,21.56
2022-09-18T04:00:05.932Z,21.57
2022-09-18T04:01:07.730Z,21.57
2022-09-18T04:02:09.694Z,21.56
2022-09-18T04:03:11.515Z,21.55
2022-09-18T04:04:13.371Z,21.56
2022-09-18T04:05:15.151Z,21.57
2022-09-18T04:06:17.555Z,21.56
2022-09-18T04:07:19.344Z,21.57
2022-09-18T04:08:21.187Z,21.56
2022-09-18T04:09:22.949Z,21.56
2022-09-18T04:10:24.903Z,21.57
2022-09-18T04:11:26.696Z,21.56
2022-09-18T04:12:28.391Z,21.56
2022-09-18T04:13:30.242Z,21.54
2022-09-18T04:14:31.936Z,21.56
2022-09-18T04:15:33.736Z,21.55
2022-09-18T04:16:35.697Z,21.55
2022-09-18T04:17:37.437Z,21.54
2022-09-18T04:18:39.270Z,21.54
2022-09-18T04:19:41.075Z,21.53
2022-09-18T04:20:42.957Z,21.53
2022-09-18T04:21:44.773Z,21.51
2022-09-18T04:22:46.577Z,21.53
2022-09-18T04:23:48.406Z,21.52
2022-09-18T04:24:50.195Z,21.52
2022-09-18T04:25:51.991Z,21.53
2022-09-18T04:26:53.891Z,21.52
2022-09-18T04:27:55.691Z,21.51
2022-09-18T04:28:57.521Z,21.50
2022-09-18T04:29:59.320Z,21.49
2022-09-18T04:31:01.234Z,21.50
2022-09-18T04:32:03.023Z,21.47
2022-09-18T04:33:04.832Z,21.48
2022-09-18T04:34:06.672Z,21.49
2022-09-18T04:35:08.469Z,21.48
2022-09-18T04:36:10.576Z,21.48
2022-09-18T04:37:12.374Z,21.48
2022-09-18T04:38:14.177Z,21.49
2022-09-18T04:39:16.028Z,21.49
2022-09-18T04:40:19.598Z,21.48
2022-09-18T04:41:21.506Z,21.47
2022-09-18T04:42:23.311Z,21.45
2022-09-18T04:43:25.110Z,21.45
2022-09-18T04:44:26.946Z,21.44
2022-09-18T04:45:28.736Z,21.44
2022-09-18T04:46:30.704Z,21.43
2022-09-18T04:47:32.537Z,21.43
2022-09-18T04:48:34.338Z,21.43
2022-09-18T04:49:36.167Z,21.42
2022-09-18T04:50:38.270Z,21.43
2022-09-18T04:51:40.061Z,21.43
2022-09-18T04:52:41.862Z,21.43
2022-09-18T04:53:43.672Z,21.45
2022-09-18T04:54:45.513Z,21.45
2022-09-18T04:55:47.309Z,21.46
2022-09-18T04:56:49.285Z,21.45
2022-09-18T04:57:54.364Z,21.46
2022-09-18T04:58:54.711Z,21.46
2022-09-18T04:59:56.559Z,21.45
2022-09-18T05:00:58.517Z,21.45
2022-09-18T05:02:00.398Z,21.44
2022-09-18T05:03:02.170Z,21.43
2022-09-18T05:04:03.980Z,21.43
2022-09-18T05:05:05.917Z,21.43
2022-09-18T05:06:08.410Z,21.43
2022-09-18T05:07:10.213Z,21.43
2022-09-18T05:08:12.018Z,21.42
2022-09-18T05:09:13.832Z,21.43
2022-09-18T05:10:16.384Z,21.42
2022-09-18T05:11:18.226Z,21.44
2022-09-18T05:12:20.042Z,21.45
2022-09-18T05:13:21.852Z,21.43
2022-09-18T05:14:23.652Z,21.43
2022-09-18T05:15:25.623Z,21.44
2022-09-18T05:16:28.018Z,21.44
2022-09-18T05:17:29.864Z,21.46
2022-09-18T05:18:31.634Z,21.47
2022-09-18T05:19:33.438Z,21.48
2022-09-18T05:20:35.377Z,21.47
2022-09-18T05:21:37.203Z,21.47
2022-09-18T05:22:39.000Z,21.48
2022-09-18T05:23:40.803Z,21.47
2022-09-18T05:24:42.681Z,21.47
2022-09-18T05:25:44.517Z,21.48
2022-09-18T05:26:46.433Z,21.47
2022-09-18T05:27:48.271Z,21.49
2022-09-18T05:28:50.125Z,21.49
2022-09-18T05:29:51.933Z,21.49
2022-09-18T05:30:53.873Z,21.50
2022-09-18T05:31:55.875Z,21.50
2022-09-18T05:32:59.093Z,21.50
2022-09-18T05:34:01.170Z,21.51
2022-09-18T05:35:02.997Z,21.51
2022-09-18T05:36:04.927Z,21.52
2022-09-18T05:37:06.722Z,21.53
2022-09-18T05:38:08.557Z,21.54
2022-09-18T05:39:14.221Z,21.53
2022-09-18T05:40:14.824Z,21.53
2022-09-18T05:41:16.836Z,21.52
2022-09-18T05:42:18.656Z,21.53
2022-09-18T05:43:20.574Z,21.53
2022-09-18T05:44:22.366Z,21.54
2022-09-18T05:45:24.178Z,21.54
2022-09-18T05:46:26.404Z,21.56
2022-09-18T05:47:28.249Z,21.55
2022-09-18T05:48:30.043Z,21.55
2022-09-18T05:49:31.858Z,21.56
2022-09-18T05:50:33.753Z,21.57
2022-09-18T05:51:35.592Z,21.57
2022-09-18T05:52:37.443Z,21.58
2022-09-18T05:53:39.280Z,21.58
2022-09-18T05:54:41.119Z,21.60
2022-09-18T05:55:42.916Z,21.60
2022-09-18T05:56:44.967Z,21.61
2022-09-18T05:57:46.851Z,21.57
2022-09-18T05:58:48.680Z,21.57
2022-09-18T05:59:50.476Z,21.61
2022-09-18T06:00:52.416Z,21.61
2022-09-18T06:01:54.291Z,21.62
2022-09-18T06:02:56.069Z,21.62
2022-09-18T06:03:57.847Z,21.63
2022-09-18T06:04:59.663Z,21.62
2022-09-18T06:06:01.481Z,21.63
2022-09-18T06:07:03.325Z,21.64
2022-09-18T06:08:05.131Z,21.66
2022-09-18T06:09:06.941Z,21.65
2022-09-18T06:10:09.460Z,21.68
2022-09-18T06:11:11.257Z,21.69
2022-09-18T06:12:13.103Z,21.69
2022-09-18T06:13:14.961Z,21.70
2022-09-18T06:14:16.853Z,21.70
2022-09-18T06:15:18.662Z,21.71
2022-09-18T06:16:21.068Z,21.72
2022-09-18T06:17:22.906Z,21.73
2022-09-18T06:18:24.722Z,21.74
2022-09-18T06:19:26.542Z,21.75
2022-09-18T06:20:28.735Z,21.75
2022-09-18T06:21:30.558Z,21.77
2022-09-18T06:22:32.412Z,21.77
2022-09-18T06:23:34.309Z,21.79
2022-09-18T06:24:36.121Z,21.81
2022-09-18T06:25:37.932Z,21.82
2022-09-18T06:26:40.042Z,21.84
2022-09-18T06:27:41.899Z,21.84
2022-09-18T06:28:43.716Z,21.86
2022-09-18T06:29:45.600Z,21.87
2022-09-18T06:30:47.681Z,21.87
2022-09-18T06:31:49.580Z,21.89
2022-09-18T06:32:51.444Z,21.90
2022-09-18T06:33:53.253Z,21.92
2022-09-18T06:34:55.044Z,21.93
2022-09-18T06:35:56.853Z,21.93
2022-09-18T06:36:58.781Z,21.95
2022-09-18T06:38:00.628Z,21.97
2022-09-18T06:39:02.471Z,21.98
2022-09-18T06:40:04.575Z,22.00
2022-09-18T06:41:06.423Z,22.00
2022-09-18T06:42:08.226Z,22.02
2022-09-18T06:43:10.062Z,22.03
2022-09-18T06:44:11.895Z,22.04
2022-09-18T06:45:13.813Z,22.05
2022-09-18T06:46:17.429Z,22.09
2022-09-18T06:47:19.207Z,22.09
2022-09-18T06:48:21.777Z,22.10
2022-09-18T06:49:23.581Z,22.13
2022-09-18T06:50:25.882Z,22.15
2022-09-18T06:51:27.730Z,22.16
2022-09-18T06:52:29.549Z,22.19
2022-09-18T06:53:31.440Z,22.20
2022-09-18T06:54:33.249Z,22.22
2022-09-18T06:55:35.029Z,22.23
2022-09-18T06:56:36.941Z,22.24
2022-09-18T06:57:38.739Z,22.25
2022-09-18T06:58:40.594Z,22.27
2022-09-18T06:59:42.388Z,22.28
2022-09-18T07:00:44.932Z,22.29
2022-09-18T07:01:46.728Z,22.32
2022-09-18T07:02:48.591Z,22.34
2022-09-18T07:03:50.476Z,22.36
2022-09-18T07:04:52.261Z,22.36
2022-09-18T07:06:55.929Z,22.40
2022-09-18T07:07:57.736Z,22.43
2022-09-18T07:08:59.679Z,22.44
2022-09-18T07:10:04.560Z,22.46
2022-09-18T07:11:05.212Z,22.47
2022-09-18T07:12:06.924Z,22.51
2022-09-18T07:13:08.718Z,22.51
2022-09-18T07:14:10.557Z,22.52
2022-09-18T07:15:12.374Z,22.54
2022-09-18T07:16:14.831Z,22.55
2022-09-18T07:17:19.146Z,22.57
2022-09-18T07:18:20.203Z,22.59
2022-09-18T07:19:22.033Z,22.60
2022-09-18T07:20:24.083Z,22.62
2022-09-18T07:21:25.849Z,22.64
2022-09-18T07:22:27.649Z,22.65
2022-09-18T07:23:29.443Z,22.68
2022-09-18T07:24:31.270Z,22.69
2022-09-18T07:25:33.063Z,22.71
2022-09-18T07:26:35.181Z,22.74
2022-09-18T07:27:36.977Z,22.75
2022-09-18T07:28:38.766Z,22.77
2022-09-18T07:29:40.630Z,22.78
2022-09-18T07:30:42.516Z,22.82
2022-09-18T07:31:45.183Z,22.83
2022-09-18T07:32:47.481Z,22.86
2022-09-18T07:33:49.300Z,22.86
2022-09-18T07:34:52.975Z,22.89
2022-09-18T07:35:54.807Z,22.90
2022-09-18T07:36:56.709Z,22.91
2022-09-18T07:37:58.498Z,22.92
2022-09-18T07:39:00.420Z,22.94
2022-09-18T07:40:02.391Z,22.95
2022-09-18T07:41:04.253Z,22.97
2022-09-18T07:42:08.950Z,22.98
2022-09-18T07:43:09.779Z,22.99
2022-09-18T07:44:11.577Z,22.99
2022-09-18T07:45:13.412Z,23.01
2022-09-18T07:46:15.845Z,23.03
2022-09-18T07:47:17.656Z,23.05
2022-09-18T07:48:19.467Z,23.08
2022-09-18T07:49:21.260Z,23.10
2022-09-18T07:50:24.637Z,23.10
2022-09-18T07:51:26.666Z,23.12
2022-09-18T07:52:28.519Z,23.12
2022-09-18T07:53:30.328Z,23.13
2022-09-18T07:54:32.153Z,23.16
2022-09-18T07:55:33.985Z,23.17
2022-09-18T07:56:35.874Z,23.19
2022-09-18T07:57:37.669Z,23.21
2022-09-18T07:58:39.491Z,23.20
2022-09-18T07:59:41.308Z,23.21
2022-09-18T08:00:43.238Z,23.20
2022-09-18T08:01:44.997Z,23.16
2022-09-18T08:02:46.911Z,23.12
2022-09-18T08:03:48.773Z,23.08
2022-09-18T08:04:50.555Z,23.07
2022-09-18T08:05:52.291Z,23.04
2022-09-18T08:06:54.378Z,23.02
2022-09-18T08:07:56.229Z,22.99
2022-09-18T08:08:58.023Z,22.97
2022-09-18T08:09:59.838Z,22.94
2022-09-18T08:11:01.716Z,22.92
2022-09-18T08:12:03.583Z,22.91
2022-09-18T08:13:05.379Z,22.88
2022-09-18T08:14:07.174Z,22.85
2022-09-18T08:15:08.969Z,22.86
2022-09-18T08:16:12.218Z,22.88
2022-09-18T08:17:13.979Z,22.88
2022-09-18T08:18:15.843Z,22.90
2022-09-18T08:19:17.655Z,22.90
2022-09-18T08:20:21.385Z,22.88
2022-09-18T08:21:23.168Z,22.86
2022-09-18T08:22:24.968Z,22.86
2022-09-18T08:23:26.783Z,22.86
2022-09-18T08:24:28.583Z,22.85
2022-09-18T08:25:30.399Z,22.88
2022-09-18T08:26:32.538Z,22.90
2022-09-18T08:27:34.235Z,22.88
2022-09-18T08:28:35.939Z,22.89
2022-09-18T08:29:37.764Z,22.89
2022-09-18T08:30:39.648Z,22.91
2022-09-18T08:31:41.573Z,22.90
2022-09-18T08:32:43.397Z,22.87
2022-09-18T08:33:45.229Z,22.83
2022-09-18T08:34:47.021Z,22.84
2022-09-18T08:35:48.830Z,22.82
2022-09-18T08:36:50.671Z,22.80
2022-09-18T08:37:52.474Z,22.82
2022-09-18T08:38:54.281Z,22.82
2022-09-18T08:39:56.134Z,22.81
2022-09-18T08:40:57.980Z,22.80
2022-09-18T08:41:59.837Z,22.79
2022-09-18T08:43:01.643Z,22.80
2022-09-18T08:44:03.329Z,22.77
2022-09-18T08:45:05.153Z,22.79
2022-09-18T08:46:07.363Z,22.80
2022-09-18T08:47:09.190Z,22.80
2022-09-18T08:48:10.987Z,22.80
2022-09-18T08:49:12.871Z,22.79
2022-09-18T08:50:15.377Z,22.82
2022-09-18T08:51:17.181Z,22.85
2022-09-18T08:52:19.012Z,22.86
2022-09-18T08:53:21.216Z,22.85
2022-09-18T08:54:23.020Z,22.83
2022-09-18T08:55:24.838Z,22.85
2022-09-18T08:56:27.250Z,22.86
2022-09-18T08:57:29.107Z,22.85
2022-09-18T08:58:30.906Z,22.85
2022-09-18T08:59:32.697Z,22.84
2022-09-18T09:00:34.662Z,22.80
2022-09-18T09:01:36.459Z,22.81
2022-09-18T09:02:38.387Z,22.81
2022-09-18T09:03:40.156Z,22.78
2022-09-18T09:04:42.065Z,22.79
2022-09-18T09:05:43.889Z,22.84
2022-09-18T09:06:45.793Z,22.87
2022-09-18T09:07:47.617Z,22.86
2022-09-18T09:08:49.423Z,22.87
2022-09-18T09:09:51.223Z,22.87
2022-09-18T09:10:53.339Z,22.84
2022-09-18T09:11:55.143Z,22.85
2022-09-18T09:12:56.994Z,22.85
2022-09-18T09:13:58.801Z,22.89
2022-09-18T09:15:00.632Z,22.88
2022-09-18T09:16:02.537Z,22.88
2022-09-18T09:17:04.314Z,22.86
2022-09-18T09:18:06.157Z,22.85
2022-09-18T09:19:07.952Z,22.87
2022-09-18T09:20:10.072Z,22.89
2022-09-18T09:21:12.019Z,22.93
2022-09-18T09:22:13.779Z,22.96
2022-09-18T09:23:15.610Z,22.99
2022-09-18T09:24:17.411Z,22.98
2022-09-18T09:25:19.215Z,22.96
2022-09-18T09:26:21.341Z,22.99
2022-09-18T09:27:23.135Z,23.01
2022-09-18T09:28:24.972Z,23.04
2022-09-18T09:29:26.784Z,23.09
2022-09-18T09:30:29.001Z,23.13
2022-09-18T09:31:30.849Z,23.15
2022-09-18T09:32:32.728Z,23.12
2022-09-18T09:33:34.552Z,23.11
2022-09-18T09:34:36.348Z,23.12
2022-09-18T09:35:38.231Z,23.15
2022-09-18T09:36:40.244Z,23.16
2022-09-18T09:37:42.053Z,23.13
2022-09-18T09:38:43.902Z,23.13
2022-09-18T09:39:45.709Z,23.11
2022-09-18T09:40:47.517Z,23.13
2022-09-18T09:41:49.328Z,23.20
2022-09-18T09:42:51.120Z,23.20
2022-09-18T09:43:52.962Z,23.21
2022-09-18T09:44:54.757Z,23.22
2022-09-18T09:45:56.562Z,23.19
2022-09-18T09:46:58.733Z,23.14
2022-09-18T09:48:00.479Z,23.15
2022-09-18T09:49:02.329Z,23.12
2022-09-18T09:50:04.272Z,23.11
2022-09-18T09:51:06.095Z,23.08
2022-09-18T09:52:09.344Z,23.16
2022-09-18T09:53:11.432Z,23.18
2022-09-18T09:54:13.287Z,23.22
2022-09-18T09:55:15.098Z,23.20
2022-09-18T09:56:17.095Z,23.23
2022-09-18T09:57:18.914Z,23.28
2022-09-18T09:58:20.719Z,23.32
2022-09-18T09:59:22.566Z,23.35
2022-09-18T10:00:24.676Z,23.41
2022-09-18T10:01:26.478Z,23.41
2022-09-18T10:02:28.337Z,23.39
2022-09-18T10:03:30.099Z,23.44
2022-09-18T10:04:31.921Z,23.48
2022-09-18T10:05:33.718Z,23.48
2022-09-18T10:06:35.675Z,23.45
2022-09-18T10:07:37.480Z,23.45
2022-09-18T10:08:39.276Z,23.42
2022-09-18T10:09:41.121Z,23.41
2022-09-18T10:10:43.227Z,23.38
2022-09-18T10:11:45.039Z,23.36
2022-09-18T10:12:46.836Z,23.34
2022-09-18T10:13:48.623Z,23.31
2022-09-18T10:14:50.479Z,23.30
2022-09-18T10:15:52.422Z,23.32
2022-09-18T10:16:54.356Z,23.38
2022-09-18T10:17:56.160Z,23.35
2022-09-18T10:18:57.987Z,23.31
2022-09-18T10:19:59.826Z,23.35
2022-09-18T10:21:01.623Z,23.37
2022-09-18T10:22:03.527Z,23.38
2022-09-18T10:23:05.333Z,23.37
2022-09-18T10:24:07.203Z,23.44
2022-09-18T10:25:09.042Z,23.53
2022-09-18T10:26:11.458Z,23.65
2022-09-18T10:27:13.260Z,23.76
2022-09-18T10:28:15.060Z,23.88
2022-09-18T10:29:16.867Z,23.99
2022-09-18T10:30:20.522Z,24.11
2022-09-18T10:31:22.405Z,24.20
2022-09-18T10:32:24.233Z,24.29
2022-09-18T10:33:26.035Z,24.39
2022-09-18T10:34:27.850Z,24.49
2022-09-18T10:35:29.700Z,24.57
2022-09-18T10:36:33.320Z,24.65
2022-09-18T10:37:35.289Z,24.73
2022-09-18T10:38:37.099Z,24.81
2022-09-18T10:39:38.905Z,24.90
2022-09-18T10:40:40.874Z,24.97
2022-09-18T10:41:43.389Z,25.03
2022-09-18T10:42:45.582Z,25.08
2022-09-18T10:43:47.399Z,25.11
2022-09-18T10:44:49.201Z,25.16
2022-09-18T10:45:51.031Z,25.18
2022-09-18T10:46:53.172Z,25.19
2022-09-18T10:47:54.929Z,25.24
2022-09-18T10:48:56.747Z,25.26
2022-09-18T10:49:58.549Z,25.28
2022-09-18T10:51:00.492Z,25.31
2022-09-18T10:52:02.298Z,25.32
2022-09-18T10:53:04.158Z,25.37
2022-09-18T10:54:05.958Z,25.41
2022-09-18T10:55:07.757Z,25.45
2022-09-18T10:56:10.030Z,25.47
2022-09-18T10:57:12.012Z,25.50
2022-09-18T10:58:13.811Z,25.52
2022-09-18T10:59:15.659Z,25.55
2022-09-18T11:00:17.957Z,25.59
2022-09-18T11:01:19.849Z,25.60
2022-09-18T11:02:21.822Z,25.62
2022-09-18T11:03:23.616Z,25.63
2022-09-18T11:04:25.424Z,25.64
2022-09-18T11:05:27.218Z,25.65
2022-09-18T11:06:29.447Z,25.68
2022-09-18T11:07:31.252Z,25.71
2022-09-18T11:08:33.068Z,25.72
2022-09-18T11:09:34.868Z,25.73
2022-09-18T11:10:37.077Z,25.76
2022-09-18T11:11:38.920Z,25.77
2022-09-18T11:12:40.762Z,25.79
2022-09-18T11:13:42.603Z,25.81
2022-09-18T11:14:44.393Z,25.85
2022-09-18T11:15:46.099Z,25.86
2022-09-18T11:16:48.210Z,25.89
2022-09-18T11:17:49.992Z,25.89
2022-09-18T11:18:51.835Z,25.91
2022-09-18T11:19:53.576Z,25.92
2022-09-18T11:20:55.483Z,25.93
2022-09-18T11:21:57.321Z,25.93
2022-09-18T11:22:59.128Z,25.94
2022-09-18T11:24:01.059Z,25.94
2022-09-18T11:25:02.800Z,25.95
2022-09-18T11:26:04.810Z,25.95
2022-09-18T11:27:06.625Z,25.96
2022-09-18T11:28:08.317Z,25.98
2022-09-18T11:29:10.116Z,25.98
2022-09-18T11:30:12.453Z,26.00
2022-09-18T11:31:14.261Z,26.01
2022-09-18T11:32:16.088Z,25.97
2022-09-18T11:33:17.897Z,25.91
2022-09-18T11:34:19.684Z,25.84
2022-09-18T11:35:21.379Z,25.77
2022-09-18T11:36:23.487Z,25.70
2022-09-18T11:37:25.352Z,25.62
2022-09-18T11:38:27.253Z,25.55
2022-09-18T11:39:29.067Z,25.52
2022-09-18T11:40:31.673Z,25.48
2022-09-18T11:41:35.297Z,25.46
2022-09-18T11:42:37.136Z,25.44
2022-09-18T11:43:38.961Z,25.40
2022-09-18T11:44:40.741Z,25.38
2022-09-18T11:45:42.489Z,25.37
2022-09-18T11:46:44.541Z,25.34
2022-09-18T11:47:46.431Z,25.32
2022-09-18T11:48:48.274Z,25.28
2022-09-18T11:49:50.036Z,25.26
2022-09-18T11:50:52.137Z,25.22
2022-09-18T11:51:53.925Z,25.21
2022-09-18T11:52:55.804Z,25.18
2022-09-18T11:53:57.611Z,25.16
2022-09-18T11:54:59.518Z,25.11
2022-09-18T11:56:01.300Z,25.06
2022-09-18T11:57:03.104Z,25.00
2022-09-18T11:58:04.954Z,24.93
2022-09-18T11:59:06.754Z,24.90
2022-09-18T12:00:09.181Z,24.87
2022-09-18T12:01:10.987Z,24.86
2022-09-18T12:02:12.854Z,24.82
2022-09-18T12:03:14.750Z,24.80
2022-09-18T12:04:16.510Z,24.79
2022-09-18T12:05:18.328Z,24.78
2022-09-18T12:06:21.994Z,24.76
2022-09-18T12:07:37.657Z,24.71
2022-09-18T12:08:39.543Z,24.68
2022-09-18T12:09:41.349Z,24.66
2022-09-18T12:10:44.941Z,24.65
2022-09-18T12:11:46.765Z,24.61
2022-09-18T12:12:48.584Z,24.55
2022-09-18T12:13:51.306Z,24.52
2022-09-18T12:14:53.123Z,24.49
2022-09-18T12:15:55.009Z,24.45
2022-09-18T12:17:00.634Z,24.40
2022-09-18T12:18:00.523Z,24.36
2022-09-18T12:19:02.364Z,24.36
2022-09-18T12:20:04.513Z,24.31
2022-09-18T12:21:06.288Z,24.25
2022-09-18T12:22:08.107Z,24.22
2022-09-18T12:23:09.930Z,24.21
2022-09-18T12:24:11.768Z,24.22
2022-09-18T12:25:13.600Z,24.23
2022-09-18T12:26:17.313Z,24.22
2022-09-18T12:27:19.123Z,24.20
2022-09-18T12:28:20.902Z,24.18
2022-09-18T12:29:22.734Z,24.13
2022-09-18T12:30:24.650Z,24.16
2022-09-18T12:31:26.503Z,24.11
2022-09-18T12:32:28.246Z,24.10
2022-09-18T12:33:33.908Z,24.06
2022-09-18T12:34:33.688Z,24.06
2022-09-18T12:35:35.579Z,24.05
2022-09-18T12:36:37.562Z,24.06
2022-09-18T12:37:39.327Z,24.10
2022-09-18T12:38:41.120Z,24.08
2022-09-18T12:39:43.723Z,24.02
2022-09-18T12:40:45.632Z,24.01
2022-09-18T12:41:47.405Z,23.98
2022-09-18T12:42:49.231Z,23.98
2022-09-18T12:43:51.022Z,23.98
2022-09-18T12:44:52.866Z,23.98
2022-09-18T12:45:54.736Z,23.95
2022-09-18T12:47:00.339Z,23.97
2022-09-18T12:48:00.335Z,23.97
2022-09-18T12:49:02.134Z,23.97
2022-09-18T12:50:04.070Z,23.95
2022-09-18T12:51:05.909Z,23.95
2022-09-18T12:52:07.726Z,23.94
2022-09-18T12:53:10.218Z,23.91
2022-09-18T12:54:12.191Z,23.88
2022-09-18T12:56:21.120Z,23.97
2022-09-18T12:57:22.962Z,23.87
2022-09-18T12:58:24.790Z,23.89
2022-09-18T12:59:26.587Z,23.87
2022-09-18T13:00:28.580Z,23.86
2022-09-18T13:01:30.521Z,23.83
2022-09-18T13:02:32.447Z,23.84
2022-09-18T13:03:34.434Z,23.82
2022-09-18T13:04:36.251Z,23.79
2022-09-18T13:05:37.969Z,23.81
2022-09-18T13:06:40.002Z,23.84
2022-09-18T13:07:41.726Z,23.80
2022-09-18T13:08:43.523Z,23.78
2022-09-18T13:09:45.308Z,23.82
2022-09-18T13:10:47.216Z,23.79
2022-09-18T13:11:49.057Z,23.79
2022-09-18T13:12:51.041Z,23.77
2022-09-18T13:13:52.931Z,23.76
2022-09-18T13:14:54.738Z,23.71
2022-09-18T13:15:56.598Z,23.73
2022-09-18T13:16:59.188Z,23.76
2022-09-18T13:18:00.986Z,23.74
2022-09-18T13:19:02.842Z,23.75
2022-09-18T13:20:04.724Z,23.75